sensor_id;sensor_type;location;lat;lon;timestamp;pressure;altitude;pressure_sealevel;temperature;humidity
39309;BME280;26019;47.510;19.122;2024-02-26T00:03:33;99428.22;;;9.24;100.00
39309;BME280;26019;47.510;19.122;2024-02-26T00:13:37;99423.22;;;9.14;100.00
39309;BME280;26019;47.510;19.122;2024-02-26T00:23:39;99413.88;;;9.06;100.00
39309;BME280;26019;47.510;19.122;2024-02-26T00:33:41;99408.53;;;9.17;100.00
39309;BME280;26019;47.510;19.122;2024-02-26T00:43:45;99397.44;;;9.14;100.00
39309;BME280;26019;47.510;19.122;2024-02-26T00:53:47;99403.16;;;9.33;100.00
39309;BME280;26019;47.510;19.122;2024-02-26T01:03:49;99391.09;;;9.35;100.00
39309;BME280;26019;47.510;19.122;2024-02-26T01:13:51;99386.81;;;9.34;100.00
39309;BME280;26019;47.510;19.122;2024-02-26T01:23:59;99374.94;;;9.25;100.00
39309;BME280;26019;47.510;19.122;2024-02-26T01:34:08;99377.41;;;9.31;100.00
39309;BME280;26019;47.510;19.122;2024-02-26T01:44:14;99366.25;;;9.31;100.00
39309;BME280;26019;47.510;19.122;2024-02-26T01:54:16;99363.50;;;9.41;100.00
39309;BME280;26019;47.510;19.122;2024-02-26T02:04:18;99362.56;;;9.44;100.00
39309;BME280;26019;47.510;19.122;2024-02-26T02:14:22;99360.97;;;9.38;100.00
39309;BME280;26019;47.510;19.122;2024-02-26T02:24:24;99364.47;;;9.34;100.00
39309;BME280;26019;47.510;19.122;2024-02-26T02:34:28;99348.28;;;9.24;100.00
39309;BME280;26019;47.510;19.122;2024-02-26T02:44:30;99354.09;;;9.37;100.00
39309;BME280;26019;47.510;19.122;2024-02-26T02:54:33;99361.13;;;9.27;100.00
39309;BME280;26019;47.510;19.122;2024-02-26T03:04:34;99364.50;;;9.31;100.00
39309;BME280;26019;47.510;19.122;2024-02-26T03:14:38;99369.72;;;9.28;100.00
39309;BME280;26019;47.510;19.122;2024-02-26T03:24:40;99356.97;;;9.19;100.00
39309;BME280;26019;47.510;19.122;2024-02-26T03:34:42;99353.50;;;9.21;100.00
39309;BME280;26019;47.510;19.122;2024-02-26T03:44:45;99350.91;;;9.21;100.00
39309;BME280;26019;47.510;19.122;2024-02-26T03:54:48;99340.66;;;9.20;100.00
39309;BME280;26019;47.510;19.122;2024-02-26T04:04:50;99344.19;;;9.13;100.00
39309;BME280;26019;47.510;19.122;2024-02-26T04:14:52;99335.81;;;8.98;100.00
39309;BME280;26019;47.510;19.122;2024-02-26T04:24:55;99334.66;;;9.16;100.00
39309;BME280;26019;47.510;19.122;2024-02-26T04:34:58;99341.75;;;9.05;100.00
39309;BME280;26019;47.510;19.122;2024-02-26T04:45:04;99340.91;;;9.03;100.00
39309;BME280;26019;47.510;19.122;2024-02-26T04:55:06;99319.28;;;9.11;100.00
39309;BME280;26019;47.510;19.122;2024-02-26T05:05:08;99312.50;;;9.06;100.00
39309;BME280;26019;47.510;19.122;2024-02-26T05:15:20;99319.50;;;8.96;100.00
39309;BME280;26019;47.510;19.122;2024-02-26T05:25:22;99320.34;;;8.98;100.00
39309;BME280;26019;47.510;19.122;2024-02-26T05:35:25;99322.00;;;9.02;100.00
39309;BME280;26019;47.510;19.122;2024-02-26T05:45:28;99322.69;;;9.12;100.00
39309;BME280;26019;47.510;19.122;2024-02-26T05:55:30;99321.72;;;9.21;100.00
39309;BME280;26019;47.510;19.122;2024-02-26T06:05:32;99328.31;;;9.37;100.00
39309;BME280;26019;47.510;19.122;2024-02-26T06:15:34;99334.97;;;9.51;100.00
39309;BME280;26019;47.510;19.122;2024-02-26T06:25:35;99339.97;;;9.60;100.00
39309;BME280;26019;47.510;19.122;2024-02-26T06:35:37;99360.16;;;9.85;100.00
39309;BME280;26019;47.510;19.122;2024-02-26T06:45:39;99349.91;;;9.82;100.00
39309;BME280;26019;47.510;19.122;2024-02-26T06:55:42;99350.31;;;10.06;100.00
39309;BME280;26019;47.510;19.122;2024-02-26T07:05:46;99360.75;;;10.45;100.00
39309;BME280;26019;47.510;19.122;2024-02-26T07:15:48;99358.34;;;10.78;100.00
39309;BME280;26019;47.510;19.122;2024-02-26T07:25:50;99355.94;;;11.43;100.00
39309;BME280;26019;47.510;19.122;2024-02-26T07:35:54;99364.63;;;11.04;100.00
39309;BME280;26019;47.510;19.122;2024-02-26T07:45:57;99377.47;;;11.79;100.00
39309;BME280;26019;47.510;19.122;2024-02-26T07:55:59;99379.06;;;11.50;100.00
39309;BME280;26019;47.510;19.122;2024-02-26T08:06:04;99382.53;;;11.49;100.00
39309;BME280;26019;47.510;19.122;2024-02-26T08:16:06;99402.22;;;12.54;100.00
39309;BME280;26019;47.510;19.122;2024-02-26T08:26:08;99402.69;;;12.39;100.00
39309;BME280;26019;47.510;19.122;2024-02-26T08:36:13;99393.84;;;13.05;100.00
39309;BME280;26019;47.510;19.122;2024-02-26T08:46:15;99392.59;;;12.28;100.00
39309;BME280;26019;47.510;19.122;2024-02-26T08:56:17;99397.94;;;11.89;100.00
39309;BME280;26019;47.510;19.122;2024-02-26T09:06:20;99395.78;;;12.06;100.00
39309;BME280;26019;47.510;19.122;2024-02-26T09:16:22;99415.34;;;11.84;100.00
39309;BME280;26019;47.510;19.122;2024-02-26T09:26:25;99418.50;;;12.60;100.00
39309;BME280;26019;47.510;19.122;2024-02-26T09:36:27;99412.41;;;13.19;100.00
39309;BME280;26019;47.510;19.122;2024-02-26T09:46:30;99421.38;;;13.09;100.00
39309;BME280;26019;47.510;19.122;2024-02-26T09:56:34;99431.63;;;12.83;100.00
39309;BME280;26019;47.510;19.122;2024-02-26T10:06:40;99432.38;;;13.17;100.00
39309;BME280;26019;47.510;19.122;2024-02-26T10:16:46;99418.63;;;12.85;100.00
39309;BME280;26019;47.510;19.122;2024-02-26T10:26:50;99420.50;;;13.37;100.00
39309;BME280;26019;47.510;19.122;2024-02-26T10:36:53;99418.66;;;14.69;100.00
39309;BME280;26019;47.510;19.122;2024-02-26T10:46:57;99396.50;;;20.19;68.38
39309;BME280;26019;47.510;19.122;2024-02-26T10:57:02;99398.66;;;21.25;59.09
39309;BME280;26019;47.510;19.122;2024-02-26T11:07:09;99391.50;;;17.75;83.74
39309;BME280;26019;47.510;19.122;2024-02-26T11:17:13;99383.22;;;16.75;94.68
39309;BME280;26019;47.510;19.122;2024-02-26T11:27:19;99391.28;;;18.31;81.54
39309;BME280;26019;47.510;19.122;2024-02-26T11:37:23;99390.88;;;17.53;77.05
39309;BME280;26019;47.510;19.122;2024-02-26T11:47:27;99381.13;;;21.26;55.79
39309;BME280;26019;47.510;19.122;2024-02-26T11:57:38;99391.78;;;21.10;53.22
39309;BME280;26019;47.510;19.122;2024-02-26T12:07:47;99393.16;;;17.59;71.52
39309;BME280;26019;47.510;19.122;2024-02-26T12:17:49;99383.19;;;17.85;75.75
39309;BME280;26019;47.510;19.122;2024-02-26T12:27:54;99376.97;;;16.60;84.59
39309;BME280;26019;47.510;19.122;2024-02-26T12:37:58;99379.66;;;16.77;81.24
39309;BME280;26019;47.510;19.122;2024-02-26T12:48:00;99372.59;;;16.22;87.29
39309;BME280;26019;47.510;19.122;2024-02-26T12:58:02;99372.31;;;16.85;81.95
39309;BME280;26019;47.510;19.122;2024-02-26T13:08:05;99378.81;;;18.69;67.09
39309;BME280;26019;47.510;19.122;2024-02-26T13:18:11;99368.00;;;20.56;55.75
39309;BME280;26019;47.510;19.122;2024-02-26T13:28:17;99378.47;;;17.21;69.15
39309;BME280;26019;47.510;19.122;2024-02-26T13:38:20;99372.13;;;17.44;67.06
39309;BME280;26019;47.510;19.122;2024-02-26T13:48:22;99374.19;;;21.25;49.46
39309;BME280;26019;47.510;19.122;2024-02-26T13:58:25;99373.91;;;18.62;55.98
39309;BME280;26019;47.510;19.122;2024-02-26T14:08:29;99369.88;;;18.73;62.51
39309;BME280;26019;47.510;19.122;2024-02-26T14:18:31;99355.72;;;20.28;58.76
39309;BME280;26019;47.510;19.122;2024-02-26T14:28:33;99346.63;;;25.47;41.92
39309;BME280;26019;47.510;19.122;2024-02-26T14:38:37;99358.94;;;17.48;67.86
39309;BME280;26019;47.510;19.122;2024-02-26T14:48:41;99357.78;;;16.61;81.43
39309;BME280;26019;47.510;19.122;2024-02-26T14:58:43;99357.56;;;18.75;68.79
39309;BME280;26019;47.510;19.122;2024-02-26T15:08:45;99356.41;;;17.97;69.89
39309;BME280;26019;47.510;19.122;2024-02-26T15:18:47;99370.56;;;17.23;81.09
39309;BME280;26019;47.510;19.122;2024-02-26T15:28:52;99376.63;;;16.48;96.12
39309;BME280;26019;47.510;19.122;2024-02-26T15:38:54;99377.47;;;15.67;100.00
39309;BME280;26019;47.510;19.122;2024-02-26T15:48:56;99390.16;;;15.12;100.00
39309;BME280;26019;47.510;19.122;2024-02-26T15:58:58;99405.28;;;15.02;100.00
39309;BME280;26019;47.510;19.122;2024-02-26T16:09:00;99403.59;;;14.53;100.00
39309;BME280;26019;47.510;19.122;2024-02-26T16:19:08;99413.91;;;14.31;100.00
39309;BME280;26019;47.510;19.122;2024-02-26T16:29:12;99421.28;;;13.94;100.00
39309;BME280;26019;47.510;19.122;2024-02-26T16:39:21;99434.56;;;13.85;100.00
39309;BME280;26019;47.510;19.122;2024-02-26T16:49:23;99451.66;;;13.65;100.00
39309;BME280;26019;47.510;19.122;2024-02-26T16:59:25;99465.53;;;13.36;100.00
39309;BME280;26019;47.510;19.122;2024-02-26T17:09:30;99459.78;;;13.26;100.00
39309;BME280;26019;47.510;19.122;2024-02-26T17:19:32;99473.06;;;13.15;100.00
39309;BME280;26019;47.510;19.122;2024-02-26T17:29:34;99479.56;;;13.00;100.00
39309;BME280;26019;47.510;19.122;2024-02-26T17:39:37;99493.84;;;12.85;100.00
39309;BME280;26019;47.510;19.122;2024-02-26T17:49:39;99499.50;;;12.68;100.00
39309;BME280;26019;47.510;19.122;2024-02-26T17:59:43;99503.09;;;12.62;100.00
39309;BME280;26019;47.510;19.122;2024-02-26T18:09:46;99514.97;;;12.71;100.00
39309;BME280;26019;47.510;19.122;2024-02-26T18:19:48;99523.81;;;12.62;100.00
39309;BME280;26019;47.510;19.122;2024-02-26T18:29:50;99510.09;;;12.59;100.00
39309;BME280;26019;47.510;19.122;2024-02-26T18:39:53;99516.84;;;12.31;100.00
39309;BME280;26019;47.510;19.122;2024-02-26T18:49:56;99532.28;;;12.01;100.00
39309;BME280;26019;47.510;19.122;2024-02-26T19:00:01;99535.50;;;11.73;100.00
39309;BME280;26019;47.510;19.122;2024-02-26T19:10:07;99536.97;;;11.46;100.00
39309;BME280;26019;47.510;19.122;2024-02-26T19:20:10;99535.72;;;11.25;100.00
39309;BME280;26019;47.510;19.122;2024-02-26T19:30:15;99543.72;;;11.12;100.00
39309;BME280;26019;47.510;19.122;2024-02-26T19:40:18;99569.06;;;10.95;100.00
39309;BME280;26019;47.510;19.122;2024-02-26T19:50:23;99577.59;;;10.54;100.00
39309;BME280;26019;47.510;19.122;2024-02-26T20:00:26;99580.94;;;10.59;100.00
39309;BME280;26019;47.510;19.122;2024-02-26T20:10:32;99583.31;;;10.70;100.00
39309;BME280;26019;47.510;19.122;2024-02-26T20:20:37;99585.78;;;10.76;100.00
39309;BME280;26019;47.510;19.122;2024-02-26T20:30:42;99594.44;;;10.74;100.00
39309;BME280;26019;47.510;19.122;2024-02-26T20:40:45;99609.78;;;10.83;100.00
39309;BME280;26019;47.510;19.122;2024-02-26T20:50:47;99617.50;;;10.86;100.00
39309;BME280;26019;47.510;19.122;2024-02-26T21:00:50;99637.16;;;10.94;100.00
39309;BME280;26019;47.510;19.122;2024-02-26T21:10:53;99636.78;;;11.15;100.00
39309;BME280;26019;47.510;19.122;2024-02-26T21:20:56;99660.94;;;11.14;100.00
39309;BME280;26019;47.510;19.122;2024-02-26T21:30:59;99672.25;;;11.09;100.00
39309;BME280;26019;47.510;19.122;2024-02-26T21:41:01;99675.41;;;11.23;100.00
39309;BME280;26019;47.510;19.122;2024-02-26T21:51:03;99680.69;;;11.18;100.00
39309;BME280;26019;47.510;19.122;2024-02-26T22:01:06;99681.03;;;10.97;100.00
39309;BME280;26019;47.510;19.122;2024-02-26T22:11:08;99670.22;;;10.76;100.00
39309;BME280;26019;47.510;19.122;2024-02-26T22:21:13;99674.03;;;10.53;100.00
39309;BME280;26019;47.510;19.122;2024-02-26T22:31:15;99678.56;;;10.37;100.00
39309;BME280;26019;47.510;19.122;2024-02-26T22:41:21;99671.97;;;10.18;100.00
39309;BME280;26019;47.510;19.122;2024-02-26T22:51:24;99690.09;;;10.13;100.00
39309;BME280;26019;47.510;19.122;2024-02-26T23:01:25;99690.91;;;10.16;100.00
39309;BME280;26019;47.510;19.122;2024-02-26T23:11:29;99687.41;;;10.22;100.00
39309;BME280;26019;47.510;19.122;2024-02-26T23:21:32;99719.94;;;10.34;100.00
39309;BME280;26019;47.510;19.122;2024-02-26T23:31:36;99732.97;;;10.26;100.00
39309;BME280;26019;47.510;19.122;2024-02-26T23:41:38;99735.88;;;9.98;100.00
39309;BME280;26019;47.510;19.122;2024-02-26T23:51:40;99719.72;;;9.87;100.00
